sensor_id;sensor_type;location;lat;lon;timestamp;pressure;altitude;pressure_sealevel;temperature;humidity
69198;BME280;56311;50.298;8.514;2023-11-22T00:00:00;98380.0;;;7.6;65.1
69198;BME280;56311;50.298;8.514;2023-11-22T00:02:00;98370.0;;;7.6;65.2
69198;BME280;56311;50.298;8.514;2023-11-22T00:04:00;98380.0;;;7.6;64.9
69198;BME280;56311;50.298;8.514;2023-11-22T00:06:00;98380.0;;;7.4;65.6
69198;BME280;56311;50.298;8.514;2023-11-22T00:08:00;98380.0;;;7.4;65.6
69198;BME280;56311;50.298;8.514;2023-11-22T00:10:00;98380.0;;;7.2;65.4
69198;BME280;56311;50.298;8.514;2023-11-22T00:12:00;98380.0;;;7.4;65.4
69198;BME280;56311;50.298;8.514;2023-11-22T00:14:00;98380.0;;;7.5;64.8
69198;BME280;56311;50.298;8.514;2023-11-22T00:16:00;98390.0;;;7.2;65.7
69198;BME280;56311;50.298;8.514;2023-11-22T00:18:00;98390.0;;;7.4;65.3
69198;BME280;56311;50.298;8.514;2023-11-22T00:20:00;98390.0;;;7.1;65.3
69198;BME280;56311;50.298;8.514;2023-11-22T00:22:00;98400.0;;;6.8;67.0
69198;BME280;56311;50.298;8.514;2023-11-22T00:24:00;98400.0;;;7.2;66.0
69198;BME280;56311;50.298;8.514;2023-11-22T00:26:00;98410.0;;;7.3;65.6
69198;BME280;56311;50.298;8.514;2023-11-22T00:28:00;98410.0;;;7.2;65.6
69198;BME280;56311;50.298;8.514;2023-11-22T00:30:00;98410.0;;;7.2;65.6
69198;BME280;56311;50.298;8.514;2023-11-22T00:32:00;98420.0;;;7.5;65.2
69198;BME280;56311;50.298;8.514;2023-11-22T00:34:00;98420.0;;;7.5;65.2
69198;BME280;56311;50.298;8.514;2023-11-22T00:36:00;98420.0;;;7.6;65.1
69198;BME280;56311;50.298;8.514;2023-11-22T00:38:01;98420.0;;;7.5;65.1
69198;BME280;56311;50.298;8.514;2023-11-22T00:40:00;98420.0;;;7.4;65.5
69198;BME280;56311;50.298;8.514;2023-11-22T00:42:00;98430.0;;;7.3;65.7
69198;BME280;56311;50.298;8.514;2023-11-22T00:44:00;98420.0;;;7.4;65.4
69198;BME280;56311;50.298;8.514;2023-11-22T00:46:00;98420.0;;;7.5;65.1
69198;BME280;56311;50.298;8.514;2023-11-22T00:48:00;98420.0;;;7.5;64.8
69198;BME280;56311;50.298;8.514;2023-11-22T00:50:00;98420.0;;;7.5;64.8
69198;BME280;56311;50.298;8.514;2023-11-22T00:52:01;98420.0;;;7.5;65.1
69198;BME280;56311;50.298;8.514;2023-11-22T00:54:00;98410.0;;;7.4;65.2
69198;BME280;56311;50.298;8.514;2023-11-22T00:56:00;98410.0;;;7.5;64.8
69198;BME280;56311;50.298;8.514;2023-11-22T00:58:00;98410.0;;;7.4;64.8
69198;BME280;56311;50.298;8.514;2023-11-22T01:00:00;98410.0;;;7.1;65.4
69198;BME280;56311;50.298;8.514;2023-11-22T01:02:00;98420.0;;;7.1;65.8
69198;BME280;56311;50.298;8.514;2023-11-22T01:04:00;98420.0;;;7.2;65.6
69198;BME280;56311;50.298;8.514;2023-11-22T01:06:00;98420.0;;;7.2;65.3
69198;BME280;56311;50.298;8.514;2023-11-22T01:08:00;98410.0;;;6.7;65.8
69198;BME280;56311;50.298;8.514;2023-11-22T01:10:00;98420.0;;;6.6;66.0
69198;BME280;56311;50.298;8.514;2023-11-22T01:12:00;98420.0;;;6.8;65.7
69198;BME280;56311;50.298;8.514;2023-11-22T01:14:00;98430.0;;;7.0;65.0
69198;BME280;56311;50.298;8.514;2023-11-22T01:16:00;98430.0;;;7.2;65.0
69198;BME280;56311;50.298;8.514;2023-11-22T01:18:00;98430.0;;;7.1;65.0
69198;BME280;56311;50.298;8.514;2023-11-22T01:20:00;98440.0;;;7.1;64.8
69198;BME280;56311;50.298;8.514;2023-11-22T01:22:00;98440.0;;;7.3;64.4
69198;BME280;56311;50.298;8.514;2023-11-22T01:24:00;98450.0;;;7.3;64.8
69198;BME280;56311;50.298;8.514;2023-11-22T01:26:00;98460.0;;;7.4;64.6
69198;BME280;56311;50.298;8.514;2023-11-22T01:28:00;98450.0;;;7.4;64.6
69198;BME280;56311;50.298;8.514;2023-11-22T01:30:01;98450.0;;;7.3;65.2
69198;BME280;56311;50.298;8.514;2023-11-22T01:32:00;98450.0;;;7.5;64.9
69198;BME280;56311;50.298;8.514;2023-11-22T01:34:00;98450.0;;;6.7;65.6
69198;BME280;56311;50.298;8.514;2023-11-22T01:36:00;98460.0;;;7.1;65.3
69198;BME280;56311;50.298;8.514;2023-11-22T01:38:00;98460.0;;;7.3;64.9
69198;BME280;56311;50.298;8.514;2023-11-22T01:40:00;98470.0;;;7.2;64.5
69198;BME280;56311;50.298;8.514;2023-11-22T01:42:00;98470.0;;;7.2;64.8
69198;BME280;56311;50.298;8.514;2023-11-22T01:44:00;98470.0;;;7.4;64.4
69198;BME280;56311;50.298;8.514;2023-11-22T01:46:00;98470.0;;;7.6;64.2
69198;BME280;56311;50.298;8.514;2023-11-22T01:48:00;98470.0;;;7.5;64.4
69198;BME280;56311;50.298;8.514;2023-11-22T01:50:00;98480.0;;;7.4;64.5
69198;BME280;56311;50.298;8.514;2023-11-22T01:52:01;98480.0;;;7.3;64.8
69198;BME280;56311;50.298;8.514;2023-11-22T01:54:01;98480.0;;;7.4;64.5
69198;BME280;56311;50.298;8.514;2023-11-22T01:56:01;98480.0;;;7.5;64.3
69198;BME280;56311;50.298;8.514;2023-11-22T01:58:00;98480.0;;;7.3;64.6
69198;BME280;56311;50.298;8.514;2023-11-22T02:00:00;98480.0;;;7.1;65.2
69198;BME280;56311;50.298;8.514;2023-11-22T02:02:00;98480.0;;;7.3;64.7
69198;BME280;56311;50.298;8.514;2023-11-22T02:04:00;98470.0;;;7.2;65.0
69198;BME280;56311;50.298;8.514;2023-11-22T02:06:00;98480.0;;;7.0;65.4
69198;BME280;56311;50.298;8.514;2023-11-22T02:08:01;98480.0;;;7.1;65.1
69198;BME280;56311;50.298;8.514;2023-11-22T02:10:00;98480.0;;;7.2;64.8
69198;BME280;56311;50.298;8.514;2023-11-22T02:12:00;98480.0;;;7.1;64.7
69198;BME280;56311;50.298;8.514;2023-11-22T02:14:00;98490.0;;;6.7;65.1
69198;BME280;56311;50.298;8.514;2023-11-22T02:16:02;98490.0;;;6.5;65.8
69198;BME280;56311;50.298;8.514;2023-11-22T02:18:00;98490.0;;;6.9;65.0
69198;BME280;56311;50.298;8.514;2023-11-22T02:20:00;98500.0;;;6.7;65.3
69198;BME280;56311;50.298;8.514;2023-11-22T02:22:00;98500.0;;;6.9;64.8
69198;BME280;56311;50.298;8.514;2023-11-22T02:24:00;98510.0;;;6.8;64.9
69198;BME280;56311;50.298;8.514;2023-11-22T02:26:00;98510.0;;;6.8;64.9
69198;BME280;56311;50.298;8.514;2023-11-22T02:28:00;98510.0;;;7.0;64.4
69198;BME280;56311;50.298;8.514;2023-11-22T02:30:01;98510.0;;;6.8;64.7
69198;BME280;56311;50.298;8.514;2023-11-22T02:32:00;98510.0;;;6.9;64.5
69198;BME280;56311;50.298;8.514;2023-11-22T02:34:00;98510.0;;;6.9;64.4
69198;BME280;56311;50.298;8.514;2023-11-22T02:36:00;98510.0;;;6.8;64.7
69198;BME280;56311;50.298;8.514;2023-11-22T02:38:00;98500.0;;;6.8;64.6
69198;BME280;56311;50.298;8.514;2023-11-22T02:40:05;98490.0;;;6.7;64.8
69198;BME280;56311;50.298;8.514;2023-11-22T02:42:01;98490.0;;;6.8;64.5
69198;BME280;56311;50.298;8.514;2023-11-22T02:44:01;98480.0;;;6.8;64.4
69198;BME280;56311;50.298;8.514;2023-11-22T02:46:01;98470.0;;;6.7;64.5
69198;BME280;56311;50.298;8.514;2023-11-22T02:48:00;98470.0;;;6.7;64.4
69198;BME280;56311;50.298;8.514;2023-11-22T02:50:01;98480.0;;;6.7;64.4
69198;BME280;56311;50.298;8.514;2023-11-22T02:52:00;98480.0;;;6.7;64.5
69198;BME280;56311;50.298;8.514;2023-11-22T02:54:01;98490.0;;;6.7;64.3
69198;BME280;56311;50.298;8.514;2023-11-22T02:56:00;98490.0;;;6.5;64.8
69198;BME280;56311;50.298;8.514;2023-11-22T02:58:00;98490.0;;;6.6;64.8
69198;BME280;56311;50.298;8.514;2023-11-22T03:00:00;98490.0;;;6.6;64.7
69198;BME280;56311;50.298;8.514;2023-11-22T03:02:00;98490.0;;;6.6;64.5
69198;BME280;56311;50.298;8.514;2023-11-22T03:04:00;98490.0;;;6.6;64.4
69198;BME280;56311;50.298;8.514;2023-11-22T03:06:00;98500.0;;;6.5;64.4
69198;BME280;56311;50.298;8.514;2023-11-22T03:08:00;98510.0;;;6.5;64.4
69198;BME280;56311;50.298;8.514;2023-11-22T03:10:00;98510.0;;;6.5;64.4
69198;BME280;56311;50.298;8.514;2023-11-22T03:12:00;98510.0;;;6.6;64.0
69198;BME280;56311;50.298;8.514;2023-11-22T03:14:00;98520.0;;;6.6;63.8
69198;BME280;56311;50.298;8.514;2023-11-22T03:16:00;98520.0;;;6.6;63.6
69198;BME280;56311;50.298;8.514;2023-11-22T03:18:00;98520.0;;;6.4;63.8
69198;BME280;56311;50.298;8.514;2023-11-22T03:20:00;98520.0;;;6.4;64.0
69198;BME280;56311;50.298;8.514;2023-11-22T03:22:01;98520.0;;;6.2;64.5
69198;BME280;56311;50.298;8.514;2023-11-22T03:24:00;98530.0;;;6.2;64.6
69198;BME280;56311;50.298;8.514;2023-11-22T03:26:00;98520.0;;;6.3;64.2
69198;BME280;56311;50.298;8.514;2023-11-22T03:28:00;98520.0;;;6.2;64.0
69198;BME280;56311;50.298;8.514;2023-11-22T03:30:00;98520.0;;;6.2;64.4
69198;BME280;56311;50.298;8.514;2023-11-22T03:32:00;98520.0;;;6.2;64.3
69198;BME280;56311;50.298;8.514;2023-11-22T03:34:00;98530.0;;;6.2;64.4
69198;BME280;56311;50.298;8.514;2023-11-22T03:36:00;98530.0;;;6.2;64.5
69198;BME280;56311;50.298;8.514;2023-11-22T03:38:00;98530.0;;;6.2;64.2
69198;BME280;56311;50.298;8.514;2023-11-22T03:40:00;98530.0;;;5.8;65.1
69198;BME280;56311;50.298;8.514;2023-11-22T03:42:00;98540.0;;;6.2;64.6
69198;BME280;56311;50.298;8.514;2023-11-22T03:44:00;98540.0;;;6.3;64.2
69198;BME280;56311;50.298;8.514;2023-11-22T03:46:00;98540.0;;;6.2;64.4
69198;BME280;56311;50.298;8.514;2023-11-22T03:48:00;98550.0;;;5.8;65.6
69198;BME280;56311;50.298;8.514;2023-11-22T03:50:00;98550.0;;;5.8;65.7
69198;BME280;56311;50.298;8.514;2023-11-22T03:52:00;98560.0;;;5.9;65.8
69198;BME280;56311;50.298;8.514;2023-11-22T03:54:00;98560.0;;;5.9;65.4
69198;BME280;56311;50.298;8.514;2023-11-22T03:56:01;98560.0;;;5.9;65.6
69198;BME280;56311;50.298;8.514;2023-11-22T03:58:00;98570.0;;;5.7;66.3
69198;BME280;56311;50.298;8.514;2023-11-22T04:00:00;98570.0;;;5.4;66.9
69198;BME280;56311;50.298;8.514;2023-11-22T04:02:00;98570.0;;;6.1;65.5
69198;BME280;56311;50.298;8.514;2023-11-22T04:04:00;98580.0;;;6.3;64.7
69198;BME280;56311;50.298;8.514;2023-11-22T04:06:00;98580.0;;;6.7;63.6
69198;BME280;56311;50.298;8.514;2023-11-22T04:08:00;98590.0;;;6.4;64.1
69198;BME280;56311;50.298;8.514;2023-11-22T04:10:00;98590.0;;;6.4;64.1
69198;BME280;56311;50.298;8.514;2023-11-22T04:12:00;98590.0;;;6.5;63.8
69198;BME280;56311;50.298;8.514;2023-11-22T04:14:00;98590.0;;;6.7;63.4
69198;BME280;56311;50.298;8.514;2023-11-22T04:16:00;98590.0;;;6.0;64.9
69198;BME280;56311;50.298;8.514;2023-11-22T04:18:00;98590.0;;;6.3;64.2
69198;BME280;56311;50.298;8.514;2023-11-22T04:20:00;98600.0;;;6.5;63.7
69198;BME280;56311;50.298;8.514;2023-11-22T04:22:00;98600.0;;;6.7;63.2
69198;BME280;56311;50.298;8.514;2023-11-22T04:24:00;98600.0;;;6.6;63.0
69198;BME280;56311;50.298;8.514;2023-11-22T04:26:00;98600.0;;;6.6;62.8
69198;BME280;56311;50.298;8.514;2023-11-22T04:28:00;98600.0;;;6.1;63.6
69198;BME280;56311;50.298;8.514;2023-11-22T04:30:00;98600.0;;;5.6;65.4
69198;BME280;56311;50.298;8.514;2023-11-22T04:32:00;98600.0;;;6.0;64.4
69198;BME280;56311;50.298;8.514;2023-11-22T04:34:00;98600.0;;;6.2;63.5
69198;BME280;56311;50.298;8.514;2023-11-22T04:36:00;98610.0;;;6.4;62.9
69198;BME280;56311;50.298;8.514;2023-11-22T04:38:00;98610.0;;;6.4;62.8
69198;BME280;56311;50.298;8.514;2023-11-22T04:40:00;98620.0;;;6.5;62.4
69198;BME280;56311;50.298;8.514;2023-11-22T04:42:00;98620.0;;;6.6;62.0
69198;BME280;56311;50.298;8.514;2023-11-22T04:44:00;98620.0;;;6.6;61.7
69198;BME280;56311;50.298;8.514;2023-11-22T04:46:00;98620.0;;;6.6;61.4
69198;BME280;56311;50.298;8.514;2023-11-22T04:48:00;98620.0;;;6.6;61.4
69198;BME280;56311;50.298;8.514;2023-11-22T04:50:00;98620.0;;;6.4;61.5
69198;BME280;56311;50.298;8.514;2023-11-22T04:52:00;98620.0;;;6.4;61.6
69198;BME280;56311;50.298;8.514;2023-11-22T04:54:00;98620.0;;;6.3;61.4
69198;BME280;56311;50.298;8.514;2023-11-22T04:56:00;98620.0;;;6.1;61.7
69198;BME280;56311;50.298;8.514;2023-11-22T04:58:00;98620.0;;;6.2;61.5
69198;BME280;56311;50.298;8.514;2023-11-22T05:00:00;98620.0;;;6.0;61.7
69198;BME280;56311;50.298;8.514;2023-11-22T05:02:00;98620.0;;;6.2;61.4
69198;BME280;56311;50.298;8.514;2023-11-22T05:04:00;98630.0;;;6.2;61.2
69198;BME280;56311;50.298;8.514;2023-11-22T05:06:01;98630.0;;;6.2;61.2
69198;BME280;56311;50.298;8.514;2023-11-22T05:08:00;98630.0;;;6.2;61.2
69198;BME280;56311;50.298;8.514;2023-11-22T05:10:00;98640.0;;;6.1;61.0
69198;BME280;56311;50.298;8.514;2023-11-22T05:12:00;98640.0;;;6.0;61.4
69198;BME280;56311;50.298;8.514;2023-11-22T05:14:00;98650.0;;;6.0;61.2
69198;BME280;56311;50.298;8.514;2023-11-22T05:16:00;98650.0;;;6.0;60.8
69198;BME280;56311;50.298;8.514;2023-11-22T05:18:00;98650.0;;;5.5;62.0
69198;BME280;56311;50.298;8.514;2023-11-22T05:20:00;98650.0;;;5.8;61.4
69198;BME280;56311;50.298;8.514;2023-11-22T05:22:00;98650.0;;;6.0;60.9
69198;BME280;56311;50.298;8.514;2023-11-22T05:24:00;98650.0;;;5.9;60.7
69198;BME280;56311;50.298;8.514;2023-11-22T05:26:00;98650.0;;;6.0;60.6
69198;BME280;56311;50.298;8.514;2023-11-22T05:28:00;98650.0;;;6.0;59.8
69198;BME280;56311;50.298;8.514;2023-11-22T05:30:00;98660.0;;;6.0;59.9
69198;BME280;56311;50.298;8.514;2023-11-22T05:32:00;98660.0;;;6.0;60.0
69198;BME280;56311;50.298;8.514;2023-11-22T05:34:00;98670.0;;;5.9;59.9
69198;BME280;56311;50.298;8.514;2023-11-22T05:36:00;98670.0;;;5.2;61.2
69198;BME280;56311;50.298;8.514;2023-11-22T05:38:00;98670.0;;;5.6;60.7
69198;BME280;56311;50.298;8.514;2023-11-22T05:40:00;98660.0;;;5.6;60.4
69198;BME280;56311;50.298;8.514;2023-11-22T05:42:00;98670.0;;;5.3;59.9
69198;BME280;56311;50.298;8.514;2023-11-22T05:44:00;98670.0;;;5.3;60.1
69198;BME280;56311;50.298;8.514;2023-11-22T05:46:00;98670.0;;;5.5;59.6
69198;BME280;56311;50.298;8.514;2023-11-22T05:48:00;98670.0;;;5.6;59.3
69198;BME280;56311;50.298;8.514;2023-11-22T05:50:00;98670.0;;;5.4;59.0
69198;BME280;56311;50.298;8.514;2023-11-22T05:52:00;98670.0;;;5.5;59.1
69198;BME280;56311;50.298;8.514;2023-11-22T05:54:00;98670.0;;;5.4;58.7
69198;BME280;56311;50.298;8.514;2023-11-22T05:56:01;98690.0;;;5.0;59.7
69198;BME280;56311;50.298;8.514;2023-11-22T05:58:00;98690.0;;;4.7;59.9
69198;BME280;56311;50.298;8.514;2023-11-22T06:00:00;98700.0;;;5.1;59.4
69198;BME280;56311;50.298;8.514;2023-11-22T06:02:00;98690.0;;;5.5;58.6
69198;BME280;56311;50.298;8.514;2023-11-22T06:04:00;98700.0;;;5.4;58.1
69198;BME280;56311;50.298;8.514;2023-11-22T06:06:00;98710.0;;;5.4;58.4
69198;BME280;56311;50.298;8.514;2023-11-22T06:08:00;98710.0;;;5.4;58.3
69198;BME280;56311;50.298;8.514;2023-11-22T06:10:00;98710.0;;;4.9;58.6
69198;BME280;56311;50.298;8.514;2023-11-22T06:12:00;98720.0;;;4.7;59.9
69198;BME280;56311;50.298;8.514;2023-11-22T06:14:00;98720.0;;;5.2;58.8
69198;BME280;56311;50.298;8.514;2023-11-22T06:16:00;98730.0;;;4.8;59.4
69198;BME280;56311;50.298;8.514;2023-11-22T06:18:00;98730.0;;;5.1;58.9
69198;BME280;56311;50.298;8.514;2023-11-22T06:20:00;98740.0;;;4.8;59.5
69198;BME280;56311;50.298;8.514;2023-11-22T06:22:00;98750.0;;;4.8;59.5
69198;BME280;56311;50.298;8.514;2023-11-22T06:24:00;98750.0;;;4.6;59.9
69198;BME280;56311;50.298;8.514;2023-11-22T06:26:00;98750.0;;;4.7;59.9
69198;BME280;56311;50.298;8.514;2023-11-22T06:28:01;98760.0;;;4.7;59.5
69198;BME280;56311;50.298;8.514;2023-11-22T06:30:00;98750.0;;;4.7;59.7
69198;BME280;56311;50.298;8.514;2023-11-22T06:32:00;98760.0;;;5.1;58.9
69198;BME280;56311;50.298;8.514;2023-11-22T06:34:00;98750.0;;;5.2;58.3
69198;BME280;56311;50.298;8.514;2023-11-22T06:36:01;98750.0;;;4.8;59.0
69198;BME280;56311;50.298;8.514;2023-11-22T06:38:00;98750.0;;;5.0;59.1
69198;BME280;56311;50.298;8.514;2023-11-22T06:40:00;98750.0;;;4.8;59.5
69198;BME280;56311;50.298;8.514;2023-11-22T06:42:00;98740.0;;;4.5;60.3
69198;BME280;56311;50.298;8.514;2023-11-22T06:44:00;98740.0;;;4.9;59.5
69198;BME280;56311;50.298;8.514;2023-11-22T06:46:01;98740.0;;;5.0;59.2
69198;BME280;56311;50.298;8.514;2023-11-22T06:48:00;98740.0;;;4.7;59.6
69198;BME280;56311;50.298;8.514;2023-11-22T06:50:00;98740.0;;;4.6;60.1
69198;BME280;56311;50.298;8.514;2023-11-22T06:52:00;98740.0;;;4.6;59.9
69198;BME280;56311;50.298;8.514;2023-11-22T06:54:00;98730.0;;;4.8;59.4
69198;BME280;56311;50.298;8.514;2023-11-22T06:56:00;98750.0;;;4.9;59.0
69198;BME280;56311;50.298;8.514;2023-11-22T06:58:00;98760.0;;;4.8;59.2
69198;BME280;56311;50.298;8.514;2023-11-22T07:00:01;98770.0;;;4.7;59.3
69198;BME280;56311;50.298;8.514;2023-11-22T07:02:00;98780.0;;;4.2;60.6
69198;BME280;56311;50.298;8.514;2023-11-22T07:04:00;98780.0;;;4.6;60.3
69198;BME280;56311;50.298;8.514;2023-11-22T07:06:00;98770.0;;;4.6;59.8
69198;BME280;56311;50.298;8.514;2023-11-22T07:08:00;98770.0;;;4.7;60.2
69198;BME280;56311;50.298;8.514;2023-11-22T07:10:00;98770.0;;;4.9;59.6
69198;BME280;56311;50.298;8.514;2023-11-22T07:12:00;98770.0;;;4.5;60.2
69198;BME280;56311;50.298;8.514;2023-11-22T07:14:00;98770.0;;;4.6;60.0
69198;BME280;56311;50.298;8.514;2023-11-22T07:16:00;98780.0;;;3.8;61.7
69198;BME280;56311;50.298;8.514;2023-11-22T07:18:00;98780.0;;;4.1;61.9
69198;BME280;56311;50.298;8.514;2023-11-22T07:20:00;98780.0;;;4.6;60.9
69198;BME280;56311;50.298;8.514;2023-11-22T07:22:00;98780.0;;;4.8;60.2
69198;BME280;56311;50.298;8.514;2023-11-22T07:24:00;98790.0;;;4.7;60.1
69198;BME280;56311;50.298;8.514;2023-11-22T07:26:00;98790.0;;;4.6;60.1
69198;BME280;56311;50.298;8.514;2023-11-22T07:28:00;98790.0;;;4.4;60.5
69198;BME280;56311;50.298;8.514;2023-11-22T07:30:00;98790.0;;;4.8;60.2
69198;BME280;56311;50.298;8.514;2023-11-22T07:32:00;98790.0;;;4.9;59.8
69198;BME280;56311;50.298;8.514;2023-11-22T07:34:00;98800.0;;;4.9;60.0
69198;BME280;56311;50.298;8.514;2023-11-22T07:36:00;98800.0;;;5.0;59.7
69198;BME280;56311;50.298;8.514;2023-11-22T07:38:01;98800.0;;;5.1;59.4
69198;BME280;56311;50.298;8.514;2023-11-22T07:40:00;98790.0;;;5.2;58.9
69198;BME280;56311;50.298;8.514;2023-11-22T07:42:00;98790.0;;;5.1;58.9
69198;BME280;56311;50.298;8.514;2023-11-22T07:44:00;98780.0;;;5.2;58.7
69198;BME280;56311;50.298;8.514;2023-11-22T07:46:04;98780.0;;;5.3;58.4
69198;BME280;56311;50.298;8.514;2023-11-22T07:48:00;98770.0;;;5.3;58.5
69198;BME280;56311;50.298;8.514;2023-11-22T07:50:00;98780.0;;;5.4;58.4
69198;BME280;56311;50.298;8.514;2023-11-22T07:52:00;98790.0;;;5.3;58.4
69198;BME280;56311;50.298;8.514;2023-11-22T07:54:01;98790.0;;;5.4;58.3
69198;BME280;56311;50.298;8.514;2023-11-22T07:56:00;98780.0;;;5.2;58.4
69198;BME280;56311;50.298;8.514;2023-11-22T07:58:00;98780.0;;;5.2;58.6
69198;BME280;56311;50.298;8.514;2023-11-22T08:00:00;98780.0;;;5.4;58.4
69198;BME280;56311;50.298;8.514;2023-11-22T08:02:00;98780.0;;;4.9;59.5
69198;BME280;56311;50.298;8.514;2023-11-22T08:04:01;98780.0;;;5.2;58.9
69198;BME280;56311;50.298;8.514;2023-11-22T08:06:00;98780.0;;;5.3;58.2
69198;BME280;56311;50.298;8.514;2023-11-22T08:08:00;98780.0;;;5.2;58.3
69198;BME280;56311;50.298;8.514;2023-11-22T08:10:00;98790.0;;;5.4;58.0
69198;BME280;56311;50.298;8.514;2023-11-22T08:12:00;98790.0;;;5.5;57.7
69198;BME280;56311;50.298;8.514;2023-11-22T08:14:00;98790.0;;;5.2;58.2
69198;BME280;56311;50.298;8.514;2023-11-22T08:16:00;98800.0;;;5.0;58.5
69198;BME280;56311;50.298;8.514;2023-11-22T08:18:00;98800.0;;;4.7;59.1
69198;BME280;56311;50.298;8.514;2023-11-22T08:20:00;98810.0;;;4.9;59.1
69198;BME280;56311;50.298;8.514;2023-11-22T08:22:00;98810.0;;;4.4;59.7
69198;BME280;56311;50.298;8.514;2023-11-22T08:24:00;98810.0;;;4.6;59.7
69198;BME280;56311;50.298;8.514;2023-11-22T08:26:01;98800.0;;;5.0;59.4
69198;BME280;56311;50.298;8.514;2023-11-22T08:28:00;98790.0;;;4.9;58.9
69198;BME280;56311;50.298;8.514;2023-11-22T08:30:00;98790.0;;;4.9;59.0
69198;BME280;56311;50.298;8.514;2023-11-22T08:32:00;98800.0;;;5.1;58.8
69198;BME280;56311;50.298;8.514;2023-11-22T08:34:00;98800.0;;;4.9;58.2
69198;BME280;56311;50.298;8.514;2023-11-22T08:36:00;98810.0;;;4.9;58.1
69198;BME280;56311;50.298;8.514;2023-11-22T08:38:00;98800.0;;;5.1;58.1
69198;BME280;56311;50.298;8.514;2023-11-22T08:40:00;98810.0;;;4.5;57.2
69198;BME280;56311;50.298;8.514;2023-11-22T08:42:00;98810.0;;;4.6;57.4
69198;BME280;56311;50.298;8.514;2023-11-22T08:44:00;98810.0;;;4.9;57.4
69198;BME280;56311;50.298;8.514;2023-11-22T08:46:01;98820.0;;;5.1;57.0
69198;BME280;56311;50.298;8.514;2023-11-22T08:48:00;98810.0;;;4.9;56.3
69198;BME280;56311;50.298;8.514;2023-11-22T08:50:00;98810.0;;;4.8;56.9
69198;BME280;56311;50.298;8.514;2023-11-22T08:52:00;98810.0;;;5.0;56.6
69198;BME280;56311;50.298;8.514;2023-11-22T08:54:00;98820.0;;;5.1;56.9
69198;BME280;56311;50.298;8.514;2023-11-22T08:56:00;98820.0;;;5.2;56.2
69198;BME280;56311;50.298;8.514;2023-11-22T08:58:00;98830.0;;;5.3;55.7
69198;BME280;56311;50.298;8.514;2023-11-22T09:00:01;98830.0;;;5.2;55.1
69198;BME280;56311;50.298;8.514;2023-11-22T09:02:00;98830.0;;;5.0;55.6
69198;BME280;56311;50.298;8.514;2023-11-22T09:04:00;98840.0;;;5.0;56.0
69198;BME280;56311;50.298;8.514;2023-11-22T09:06:00;98840.0;;;5.3;55.7
69198;BME280;56311;50.298;8.514;2023-11-22T09:08:00;98840.0;;;4.7;55.4
69198;BME280;56311;50.298;8.514;2023-11-22T09:10:00;98840.0;;;4.7;56.3
69198;BME280;56311;50.298;8.514;2023-11-22T09:12:00;98840.0;;;4.8;56.6
69198;BME280;56311;50.298;8.514;2023-11-22T09:14:01;98830.0;;;4.5;56.7
69198;BME280;56311;50.298;8.514;2023-11-22T09:16:00;98830.0;;;5.2;56.0
69198;BME280;56311;50.298;8.514;2023-11-22T09:18:00;98830.0;;;5.3;55.6
69198;BME280;56311;50.298;8.514;2023-11-22T09:20:00;98840.0;;;5.3;55.5
69198;BME280;56311;50.298;8.514;2023-11-22T09:22:00;98830.0;;;5.0;55.3
69198;BME280;56311;50.298;8.514;2023-11-22T09:24:01;98830.0;;;4.9;53.8
69198;BME280;56311;50.298;8.514;2023-11-22T09:26:00;98830.0;;;4.8;54.7
69198;BME280;56311;50.298;8.514;2023-11-22T09:28:00;98830.0;;;5.1;54.2
69198;BME280;56311;50.298;8.514;2023-11-22T09:30:00;98830.0;;;5.2;54.2
69198;BME280;56311;50.298;8.514;2023-11-22T09:32:00;98830.0;;;5.2;54.1
69198;BME280;56311;50.298;8.514;2023-11-22T09:34:00;98840.0;;;5.2;53.6
69198;BME280;56311;50.298;8.514;2023-11-22T09:36:00;98840.0;;;5.0;54.2
69198;BME280;56311;50.298;8.514;2023-11-22T09:38:01;98840.0;;;5.2;53.7
69198;BME280;56311;50.298;8.514;2023-11-22T09:40:00;98840.0;;;5.1;53.8
69198;BME280;56311;50.298;8.514;2023-11-22T09:42:00;98850.0;;;5.3;52.8
69198;BME280;56311;50.298;8.514;2023-11-22T09:44:00;98860.0;;;5.6;52.2
69198;BME280;56311;50.298;8.514;2023-11-22T09:46:00;98860.0;;;5.7;52.3
69198;BME280;56311;50.298;8.514;2023-11-22T09:48:02;98860.0;;;5.8;52.1
69198;BME280;56311;50.298;8.514;2023-11-22T09:50:01;98870.0;;;5.4;51.9
69198;BME280;56311;50.298;8.514;2023-11-22T09:52:01;98880.0;;;5.2;50.7
69198;BME280;56311;50.298;8.514;2023-11-22T09:54:04;98880.0;;;5.4;51.8
69198;BME280;56311;50.298;8.514;2023-11-22T09:56:01;98890.0;;;5.5;52.1
69198;BME280;56311;50.298;8.514;2023-11-22T09:58:01;98890.0;;;5.5;52.2
69198;BME280;56311;50.298;8.514;2023-11-22T10:00:01;98880.0;;;5.4;51.9
69198;BME280;56311;50.298;8.514;2023-11-22T10:02:00;98880.0;;;5.6;51.4
69198;BME280;56311;50.298;8.514;2023-11-22T10:04:00;98880.0;;;5.1;51.5
69198;BME280;56311;50.298;8.514;2023-11-22T10:06:00;98870.0;;;5.5;51.5
69198;BME280;56311;50.298;8.514;2023-11-22T10:08:01;98870.0;;;5.7;52.1
69198;BME280;56311;50.298;8.514;2023-11-22T10:10:00;98870.0;;;5.4;52.3
69198;BME280;56311;50.298;8.514;2023-11-22T10:12:01;98870.0;;;5.4;52.5
69198;BME280;56311;50.298;8.514;2023-11-22T10:14:00;98870.0;;;5.4;53.1
69198;BME280;56311;50.298;8.514;2023-11-22T10:16:09;98880.0;;;5.8;52.7
69198;BME280;56311;50.298;8.514;2023-11-22T10:18:00;98870.0;;;5.9;52.0
69198;BME280;56311;50.298;8.514;2023-11-22T10:20:00;98880.0;;;6.4;51.2
69198;BME280;56311;50.298;8.514;2023-11-22T10:22:04;98880.0;;;6.4;50.9
69198;BME280;56311;50.298;8.514;2023-11-22T10:24:01;98870.0;;;6.7;50.1
69198;BME280;56311;50.298;8.514;2023-11-22T10:26:00;98860.0;;;6.8;50.0
69198;BME280;56311;50.298;8.514;2023-11-22T10:28:00;98850.0;;;7.0;48.3
69198;BME280;56311;50.298;8.514;2023-11-22T10:30:00;98860.0;;;7.0;49.0
69198;BME280;56311;50.298;8.514;2023-11-22T10:32:00;98860.0;;;7.2;48.1
69198;BME280;56311;50.298;8.514;2023-11-22T10:34:00;98860.0;;;6.7;49.3
69198;BME280;56311;50.298;8.514;2023-11-22T10:36:01;98860.0;;;6.5;48.8
69198;BME280;56311;50.298;8.514;2023-11-22T10:38:00;98860.0;;;7.0;48.9
69198;BME280;56311;50.298;8.514;2023-11-22T10:40:00;98860.0;;;7.1;48.5
69198;BME280;56311;50.298;8.514;2023-11-22T10:42:05;98860.0;;;7.3;47.5
69198;BME280;56311;50.298;8.514;2023-11-22T10:44:01;98870.0;;;7.3;48.4
69198;BME280;56311;50.298;8.514;2023-11-22T10:46:05;98880.0;;;7.4;47.8
69198;BME280;56311;50.298;8.514;2023-11-22T10:48:01;98880.0;;;7.2;48.9
69198;BME280;56311;50.298;8.514;2023-11-22T10:50:00;98890.0;;;8.0;47.0
69198;BME280;56311;50.298;8.514;2023-11-22T10:52:03;98890.0;;;8.6;45.6
69198;BME280;56311;50.298;8.514;2023-11-22T10:54:01;98880.0;;;8.0;46.7
69198;BME280;56311;50.298;8.514;2023-11-22T10:56:04;98890.0;;;7.5;47.4
69198;BME280;56311;50.298;8.514;2023-11-22T10:58:02;98890.0;;;7.0;48.2
69198;BME280;56311;50.298;8.514;2023-11-22T11:00:04;98880.0;;;6.9;49.1
69198;BME280;56311;50.298;8.514;2023-11-22T11:02:01;98880.0;;;6.2;50.9
69198;BME280;56311;50.298;8.514;2023-11-22T11:04:01;98890.0;;;6.8;50.2
69198;BME280;56311;50.298;8.514;2023-11-22T11:06:02;98900.0;;;6.9;50.2
69198;BME280;56311;50.298;8.514;2023-11-22T11:08:04;98900.0;;;6.9;49.8
69198;BME280;56311;50.298;8.514;2023-11-22T11:10:01;98910.0;;;6.3;50.8